Time;durP1;ratioP1;P1;durP2;ratioP2;P2;SDS_P1;SDS_P2;PMS_P1;PMS_P2;Temp;Humidity;BMP_temperature;BMP_pressure;BME280_temperature;BME280_humidity;BME280_pressure;Samples;Min_cycle;Max_cycle;Signal;HPM_P1;HPM_P2
2023/05/09 00:01:11;;;;;;;3.00;2.00;;;;;;;10.74;59.79;100540.41;4458714;32;20134;-93
2023/05/09 00:03:37;;;;;;;4.20;2.08;;;;;;;10.55;59.79;100540.78;4463286;32;20149;-92
2023/05/09 00:06:03;;;;;;;4.05;1.87;;;;;;;10.43;59.77;100537.53;4448417;32;20105;-93
2023/05/09 00:08:29;;;;;;;3.03;2.30;;;;;;;10.62;59.79;100545.84;4456455;32;20134;-91
2023/05/09 00:10:54;;;;;;;5.90;2.08;;;;;;;10.50;59.78;100545.22;4450812;32;20434;-95
2023/05/09 00:13:20;;;;;;;3.92;2.10;;;;;;;10.54;59.79;100537.31;4456507;32;20192;-91
2023/05/09 00:15:45;;;;;;;3.90;1.90;;;;;;;10.39;59.78;100537.59;4450749;32;20097;-93
2023/05/09 00:18:11;;;;;;;3.50;2.17;;;;;;;10.32;59.77;100529.06;4453683;32;20152;-92
2023/05/09 00:20:37;;;;;;;4.70;1.92;;;;;;;10.38;59.77;100535.87;4451955;32;20152;-94
2023/05/09 00:23:03;;;;;;;2.85;1.92;;;;;;;10.33;59.77;100532.53;4456623;32;20092;-94
2023/05/09 00:25:29;;;;;;;3.85;2.42;;;;;;;10.39;59.77;100528.06;4463975;32;20092;-92
2023/05/09 00:27:54;;;;;;;4.78;2.00;;;;;;;10.36;59.77;100528.13;4459452;32;20479;-93
2023/05/09 00:30:20;;;;;;;3.67;1.92;;;;;;;10.26;59.77;100530.94;4456503;32;20189;-94
2023/05/09 00:32:45;;;;;;;3.95;2.17;;;;;;;10.22;59.77;100532.72;4466472;32;20088;-94
2023/05/09 00:35:10;;;;;;;3.95;2.05;;;;;;;10.24;59.76;100527.50;4457163;32;20421;-94
2023/05/09 00:37:36;;;;;;;3.33;2.03;;;;;;;10.00;59.75;100528.75;4445461;32;20203;-92
2023/05/09 00:40:03;;;;;;;4.82;1.98;;;;;;;10.08;59.76;100526.88;4458780;32;20171;-95
2023/05/09 00:42:28;;;;;;;3.53;2.10;;;;;;;10.14;59.76;100522.41;4458930;32;20112;-94
2023/05/09 00:44:54;;;;;;;3.22;1.98;;;;;;;10.01;59.76;100520.06;4458104;32;20511;-93
2023/05/09 00:47:21;;;;;;;3.30;2.30;;;;;;;9.96;59.75;100521.91;4460534;32;20136;-92
2023/05/09 00:49:47;;;;;;;3.10;2.12;;;;;;;10.15;59.76;100518.06;4458256;32;20134;-92
2023/05/09 00:52:12;;;;;;;5.05;2.00;;;;;;;9.94;59.75;100524.53;4471839;32;20108;-93
2023/05/09 00:54:37;;;;;;;4.25;1.83;;;;;;;10.05;59.76;100514.78;4451550;32;20139;-93
2023/05/09 00:57:03;;;;;;;2.80;1.75;;;;;;;9.88;59.74;100524.59;4456068;32;20425;-94
2023/05/09 00:59:29;;;;;;;3.33;2.03;;;;;;;9.99;59.75;100521.84;4452421;32;20109;-93
2023/05/09 01:01:55;;;;;;;4.25;1.95;;;;;;;10.01;59.75;100520.94;4469766;32;20162;-93
2023/05/09 01:04:20;;;;;;;3.47;2.05;;;;;;;10.28;59.76;100514.41;4456324;32;20458;-92
2023/05/09 01:07:05;;;;;;;2.72;1.80;;;;;;;10.39;59.78;100511.59;4456105;32;20173;-93
2023/05/09 01:09:57;;;;;;;3.92;1.77;;;;;;;10.50;59.78;100514.00;4475364;32;20115;-94
2023/05/09 01:12:34;;;;;;;3.03;1.67;;;;;;;10.37;59.77;100519.41;4476485;32;20143;-94
2023/05/09 01:15:07;;;;;;;4.32;2.20;;;;;;;10.05;59.75;100519.97;4456579;32;20097;-94
2023/05/09 01:17:57;;;;;;;4.75;2.22;;;;;;;10.04;59.75;100515.66;4457664;32;20085;-92
2023/05/09 01:20:32;;;;;;;5.03;2.47;;;;;;;10.02;59.75;100517.44;4470032;32;20109;-93
2023/05/09 01:23:26;;;;;;;4.90;1.85;;;;;;;9.65;59.73;100527.56;4458113;32;20157;-93
2023/05/09 01:25:57;;;;;;;2.90;2.22;;;;;;;9.80;59.75;100527.34;4471448;32;20092;-94
2023/05/09 01:28:48;;;;;;;4.30;2.28;;;;;;;9.65;59.73;100521.53;4456890;32;20098;-95
2023/05/09 01:31:15;;;;;;;4.18;2.40;;;;;;;9.75;59.73;100523.12;4469958;32;20109;-95
2023/05/09 01:33:40;;;;;;;3.50;2.20;;;;;;;9.72;59.74;100518.81;4456000;32;20152;-92
2023/05/09 01:36:08;;;;;;;6.03;2.00;;;;;;;9.51;59.72;100512.22;4456305;32;20629;-94
2023/05/09 01:38:34;;;;;;;3.58;1.95;;;;;;;9.70;59.73;100512.78;4458211;32;20144;-92
2023/05/09 01:40:59;;;;;;;4.78;2.60;;;;;;;9.85;59.74;100509.06;4457907;32;23107;-93
2023/05/09 01:43:26;;;;;;;4.68;2.42;;;;;;;9.72;59.73;100508.44;4458301;32;20112;-93
2023/05/09 01:45:52;;;;;;;4.95;2.42;;;;;;;9.72;59.73;100500.63;4458553;32;20092;-93
2023/05/09 01:48:17;;;;;;;4.70;2.08;;;;;;;9.80;59.74;100497.87;4458024;32;20093;-93
2023/05/09 01:50:43;;;;;;;5.50;2.40;;;;;;;9.70;59.72;100504.09;4458672;32;20145;-93
2023/05/09 01:53:09;;;;;;;3.55;2.17;;;;;;;9.60;59.73;100505.16;4471387;32;20114;-93
2023/05/09 01:55:35;;;;;;;4.95;2.78;;;;;;;9.54;59.72;100499.16;4457962;32;20088;-93
2023/05/09 01:58:00;;;;;;;5.10;2.40;;;;;;;9.41;59.71;100502.81;4458582;32;20149;-93
2023/05/09 02:00:26;;;;;;;4.30;2.50;;;;;;;9.66;59.73;100499.84;4458360;32;20177;-93
2023/05/09 02:02:51;;;;;;;5.87;2.42;;;;;;;9.08;59.70;100509.38;4458083;32;20224;-91
2023/05/09 02:05:17;;;;;;;3.30;2.20;;;;;;;9.08;59.69;100503.34;4470437;32;20123;-91
2023/05/09 02:07:42;;;;;;;3.42;2.35;;;;;;;9.46;59.72;100487.16;4457542;32;20122;-91
2023/05/09 02:10:08;;;;;;;3.92;2.25;;;;;;;9.13;59.70;100494.59;4457462;32;20145;-92
2023/05/09 02:12:33;;;;;;;4.57;2.40;;;;;;;9.21;59.71;100491.88;4457242;32;20110;-91
2023/05/09 02:14:59;;;;;;;3.97;2.12;;;;;;;9.04;59.71;100499.91;4469871;32;20140;-90
2023/05/09 02:17:24;;;;;;;5.12;2.45;;;;;;;9.14;59.70;100492.84;4457131;32;20131;-90
2023/05/09 02:19:50;;;;;;;4.87;2.65;;;;;;;9.23;59.71;100496.19;4457061;32;20116;-90
2023/05/09 02:22:15;;;;;;;3.25;2.25;;;;;;;9.09;59.70;100494.66;4456893;32;20184;-91
2023/05/09 02:24:42;;;;;;;4.20;2.53;;;;;;;8.77;59.68;100492.50;4469953;32;20088;-90
2023/05/09 02:27:07;;;;;;;3.20;2.00;;;;;;;8.72;59.67;100494.28;4457118;32;20225;-91
2023/05/09 02:29:39;;;;;;;4.55;2.70;;;;;;;8.74;59.68;100495.97;4457483;32;20143;-91
2023/05/09 02:32:34;;;;;;;4.22;2.70;;;;;;;8.82;59.69;100488.09;4458245;32;20088;-91
2023/05/09 02:35:00;;;;;;;5.50;2.55;;;;;;;8.66;59.68;100490.03;4451161;32;20235;-92
2023/05/09 02:37:25;;;;;;;5.53;2.87;;;;;;;8.87;59.68;100489.75;4457642;32;20105;-92
2023/05/09 02:39:51;;;;;;;6.97;2.70;;;;;;;8.54;59.66;100491.06;4458219;32;20178;-93
2023/05/09 02:42:28;;;;;;;3.90;2.40;;;;;;;8.43;59.65;100487.69;4470844;32;20085;-93
2023/05/09 02:44:54;;;;;;;6.57;2.40;;;;;;;8.40;59.66;100482.56;4459206;32;20084;-92
2023/05/09 02:47:20;;;;;;;4.65;2.87;;;;;;;8.30;59.65;100491.28;4458153;32;20158;-92
2023/05/09 02:49:45;;;;;;;4.62;2.80;;;;;;;8.26;59.65;100485.25;4457562;32;20131;-92
2023/05/09 02:52:10;;;;;;;3.72;2.47;;;;;;;8.20;59.64;100484.47;4457095;32;20093;-91
2023/05/09 02:54:37;;;;;;;5.15;3.00;;;;;;;8.24;59.65;100483.56;4470313;32;20130;-93
2023/05/09 02:57:02;;;;;;;7.75;2.95;;;;;;;8.21;59.64;100481.00;4457996;32;20104;-93
2023/05/09 02:59:28;;;;;;;6.82;3.17;;;;;;;8.46;59.66;100482.47;4471479;32;20132;-92
2023/05/09 03:01:53;;;;;;;4.85;2.62;;;;;;;8.43;59.65;100481.66;4458215;32;20122;-92
2023/05/09 03:04:18;;;;;;;5.30;2.87;;;;;;;8.15;59.65;100486.25;4458242;32;20134;-94
2023/05/09 03:06:44;;;;;;;5.72;2.75;;;;;;;8.35;59.65;100483.50;4457668;32;20270;-91
2023/05/09 03:09:10;;;;;;;6.32;3.12;;;;;;;8.47;59.66;100483.34;4470134;32;20157;-91
2023/05/09 03:11:38;;;;;;;7.47;2.80;;;;;;;8.28;59.65;100472.28;4457212;32;20097;-91
2023/05/09 03:14:03;;;;;;;5.50;2.92;;;;;;;8.23;59.65;100479.25;4457633;32;20101;-92
2023/05/09 03:16:29;;;;;;;6.50;2.78;;;;;;;8.22;59.65;100482.72;4469825;32;20097;-91
2023/05/09 03:18:55;;;;;;;5.40;2.72;;;;;;;8.32;59.65;100476.56;4457154;32;20131;-93
2023/05/09 03:21:20;;;;;;;4.37;2.60;;;;;;;8.31;59.65;100477.44;4470457;32;20096;-92
2023/05/09 03:23:46;;;;;;;5.18;3.00;;;;;;;8.18;59.64;100473.25;4457119;32;20367;-92
2023/05/09 03:26:11;;;;;;;6.28;2.80;;;;;;;8.05;59.63;100475.13;4457281;32;20545;-91
2023/05/09 03:28:37;;;;;;;8.15;3.62;;;;;;;7.87;59.63;100483.94;4456477;32;20444;-89
2023/05/09 03:31:03;;;;;;;5.82;2.85;;;;;;;7.95;59.63;100483.88;4456857;32;20093;-91
2023/05/09 03:33:28;;;;;;;4.62;2.85;;;;;;;8.00;59.64;100479.47;4457259;32;20096;-90
2023/05/09 03:35:54;;;;;;;6.53;3.65;;;;;;;8.14;59.65;100477.63;4457203;32;20497;-92
2023/05/09 03:38:19;;;;;;;5.37;2.97;;;;;;;8.16;59.64;100477.59;4470106;32;20131;-91
2023/05/09 03:40:45;;;;;;;4.82;2.58;;;;;;;8.12;59.64;100486.28;4470078;32;20373;-91
2023/05/09 03:43:10;;;;;;;5.80;2.97;;;;;;;8.30;59.65;100481.78;4457212;32;20104;-91
2023/05/09 03:45:37;;;;;;;5.05;2.80;;;;;;;8.13;59.64;100491.47;4456960;32;20803;-93
2023/05/09 03:48:04;;;;;;;6.00;2.67;;;;;;;8.16;59.64;100487.97;4457166;32;20176;-91
2023/05/09 03:50:29;;;;;;;5.45;2.47;;;;;;;8.13;59.64;100493.19;4457385;32;20115;-92
2023/05/09 03:52:55;;;;;;;6.68;2.58;;;;;;;8.16;59.65;100494.03;4456860;32;20437;-93
2023/05/09 03:55:22;;;;;;;9.55;2.85;;;;;;;8.47;59.67;100496.31;4470510;32;20153;-93
2023/05/09 03:57:48;;;;;;;6.85;2.85;;;;;;;8.46;59.66;100492.84;4457431;32;20101;-92
2023/05/09 04:00:14;;;;;;;5.22;2.90;;;;;;;8.51;59.67;100492.78;4455630;32;20502;-92
2023/05/09 04:02:41;;;;;;;9.73;3.53;;;;;;;8.48;59.66;100488.50;4471602;32;20152;-94
2023/05/09 04:05:06;;;;;;;10.93;3.30;;;;;;;8.63;59.67;100487.47;4457914;32;20135;-94
2023/05/09 04:07:32;;;;;;;8.88;3.17;;;;;;;8.92;59.69;100484.50;4460751;32;20152;-91
2023/05/09 04:09:57;;;;;;;5.12;3.15;;;;;;;9.21;59.70;100484.06;4459359;32;20446;-94
2023/05/09 04:12:23;;;;;;;10.13;3.03;;;;;;;9.31;59.70;100485.69;4457516;32;20139;-93
2023/05/09 04:14:48;;;;;;;7.30;3.42;;;;;;;9.41;59.71;100484.63;4458025;32;20144;-94
2023/05/09 04:17:13;;;;;;;5.82;3.22;;;;;;;9.72;59.73;100478.97;4456896;32;20160;-91
2023/05/09 04:19:39;;;;;;;6.03;3.10;;;;;;;9.81;59.74;100482.25;4469006;32;20220;-88
2023/05/09 04:22:04;;;;;;;4.20;2.50;;;;;;;9.94;59.75;100488.13;4458217;32;20140;-94
2023/05/09 04:24:30;;;;;;;5.10;2.25;;;;;;;10.27;59.76;100478.00;4458370;32;20156;-92
2023/05/09 04:26:56;;;;;;;3.53;1.95;;;;;;;10.30;59.76;100477.94;4469033;32;20123;-87
2023/05/09 04:29:21;;;;;;;3.78;2.15;;;;;;;10.52;59.77;100484.44;4470059;32;20097;-88
2023/05/09 04:31:47;;;;;;;2.97;1.75;;;;;;;10.68;59.78;100477.19;4468657;32;20073;-90
2023/05/09 04:34:12;;;;;;;5.70;2.42;;;;;;;10.91;59.79;100472.34;4455768;32;20147;-89
2023/05/09 04:36:38;;;;;;;3.35;2.17;;;;;;;11.07;59.81;100478.91;4468449;32;20104;-90
2023/05/09 04:39:04;;;;;;;4.78;2.10;;;;;;;11.22;59.82;100476.88;4455841;32;20088;-90
2023/05/09 04:41:29;;;;;;;5.20;2.55;;;;;;;11.25;59.81;100474.19;4455947;32;20092;-88
2023/05/09 04:43:55;;;;;;;5.85;2.28;;;;;;;11.42;59.82;100474.66;4468431;32;20446;-90
2023/05/09 04:46:20;;;;;;;7.72;2.47;;;;;;;11.52;59.82;100472.66;4468881;32;20390;-88
2023/05/09 04:48:46;;;;;;;5.53;2.40;;;;;;;11.75;59.83;100479.91;4468384;32;20149;-88
2023/05/09 04:51:11;;;;;;;4.07;2.12;;;;;;;11.86;59.85;100473.59;4468117;32;20158;-88
2023/05/09 04:53:36;;;;;;;3.33;2.17;;;;;;;12.05;59.87;100467.87;4455104;32;20139;-88
2023/05/09 04:56:02;;;;;;;2.90;1.80;;;;;;;12.04;59.85;100474.84;4468425;32;20519;-89
2023/05/09 04:58:27;;;;;;;5.30;2.03;;;;;;;12.18;59.86;100475.34;4468479;32;20373;-88
2023/05/09 05:00:53;;;;;;;5.18;1.90;;;;;;;12.41;59.87;100474.72;4455336;32;20158;-87
2023/05/09 05:03:18;;;;;;;3.92;2.28;;;;;;;12.35;59.89;100472.28;4468262;32;20135;-88
2023/05/09 05:05:44;;;;;;;3.15;1.95;;;;;;;12.48;59.88;100467.56;4466620;32;32464;-87
2023/05/09 05:08:09;;;;;;;4.22;2.00;;;;;;;12.58;59.89;100477.72;4467985;32;20089;-87
2023/05/09 05:10:35;;;;;;;5.68;1.92;;;;;;;12.80;59.89;100477.09;4468092;32;20424;-89
2023/05/09 05:13:00;;;;;;;4.18;1.83;;;;;;;12.88;59.91;100478.56;4470440;32;20147;-88
2023/05/09 05:15:26;;;;;;;2.75;1.83;;;;;;;13.04;59.91;100483.34;4470253;32;20123;-88
2023/05/09 05:17:51;;;;;;;4.20;1.70;;;;;;;13.04;59.92;100488.56;4457067;32;20511;-88
2023/05/09 05:20:17;;;;;;;4.62;2.08;;;;;;;13.11;59.92;100475.25;4470503;32;20126;-89
2023/05/09 05:22:42;;;;;;;3.17;1.60;;;;;;;13.21;59.92;100478.47;4470516;32;20104;-90
2023/05/09 05:25:08;;;;;;;4.85;1.98;;;;;;;13.34;59.93;100481.56;4470776;32;20164;-88
2023/05/09 05:27:33;;;;;;;5.40;2.40;;;;;;;13.35;59.93;100484.13;4472156;32;20397;-88
2023/05/09 05:29:59;;;;;;;5.90;2.05;;;;;;;13.23;59.92;100481.88;4469767;32;33025;-90
2023/05/09 05:32:24;;;;;;;5.15;2.03;;;;;;;13.28;59.93;100484.37;4456979;32;20526;-87
2023/05/09 05:34:49;;;;;;;3.65;1.92;;;;;;;13.69;59.95;100478.63;4470074;32;20096;-87
2023/05/09 05:37:15;;;;;;;3.12;2.03;;;;;;;13.70;59.95;100479.50;4469899;32;20449;-88
2023/05/09 05:39:40;;;;;;;4.53;1.83;;;;;;;13.67;59.95;100479.59;4469614;32;28768;-88
2023/05/09 05:42:05;;;;;;;3.78;2.00;;;;;;;13.77;59.95;100478.41;4456867;32;20121;-87
2023/05/09 05:44:31;;;;;;;2.45;1.50;;;;;;;13.68;59.94;100474.31;4456776;32;28414;-88
2023/05/09 05:46:56;;;;;;;3.55;1.80;;;;;;;13.72;59.96;100464.59;4457021;32;20164;-87
2023/05/09 05:49:23;;;;;;;5.85;2.10;;;;;;;13.95;59.97;100464.69;4470560;32;29765;-88
2023/05/09 05:51:49;;;;;;;2.67;1.60;;;;;;;14.03;59.97;100467.06;4470216;32;20131;-89
2023/05/09 05:54:15;;;;;;;5.87;1.70;;;;;;;14.23;59.97;100469.81;4457153;32;20149;-88
2023/05/09 05:56:40;;;;;;;2.85;2.10;;;;;;;14.31;59.98;100472.16;4469307;32;27794;-88
2023/05/09 05:59:05;;;;;;;5.60;2.00;;;;;;;14.04;59.97;100467.00;4469784;32;20467;-88
2023/05/09 06:01:31;;;;;;;5.18;1.50;;;;;;;14.14;59.97;100470.13;4456675;32;20197;-89
2023/05/09 06:03:56;;;;;;;2.47;1.58;;;;;;;14.21;59.97;100466.41;4456631;32;20129;-88
2023/05/09 06:06:22;;;;;;;4.55;1.77;;;;;;;14.05;59.97;100476.56;4469710;32;20133;-89
2023/05/09 06:08:50;;;;;;;3.85;1.70;;;;;;;14.11;59.97;100473.72;4469976;32;20465;-89
2023/05/09 06:11:16;;;;;;;3.03;1.60;;;;;;;14.04;59.97;100476.59;4470260;32;20443;-89
2023/05/09 06:13:41;;;;;;;5.22;2.00;;;;;;;14.05;59.96;100473.09;4456905;32;20101;-87
2023/05/09 06:16:07;;;;;;;4.00;1.87;;;;;;;14.00;59.96;100475.88;4471021;32;20127;-89
2023/05/09 06:18:36;;;;;;;2.80;1.83;;;;;;;14.25;59.98;100475.88;4469829;32;20111;-88
2023/05/09 06:21:02;;;;;;;5.07;2.37;;;;;;;14.13;59.97;100474.50;4469806;32;20101;-89
2023/05/09 06:23:27;;;;;;;2.75;1.42;;;;;;;14.09;59.96;100466.81;4469104;32;20177;-88
2023/05/09 06:25:53;;;;;;;3.50;1.77;;;;;;;13.98;59.96;100471.59;4469435;32;21304;-89
2023/05/09 06:28:18;;;;;;;8.63;1.87;;;;;;;13.91;59.96;100465.69;4469940;32;20127;-90
2023/05/09 06:30:43;;;;;;;2.70;1.65;;;;;;;14.17;59.97;100464.78;4456510;32;20679;-89
2023/05/09 06:33:09;;;;;;;3.08;1.70;;;;;;;14.34;59.99;100462.44;4469844;32;20136;-87
2023/05/09 06:35:34;;;;;;;2.58;1.60;;;;;;;14.54;59.99;100455.66;4470009;32;20133;-89
2023/05/09 06:38:00;;;;;;;5.50;1.87;;;;;;;14.56;60.00;100453.81;4469872;32;20390;-89
2023/05/09 06:40:25;;;;;;;3.25;1.73;;;;;;;14.71;60.01;100451.50;4469891;32;20166;-89
2023/05/09 06:42:50;;;;;;;3.35;1.80;;;;;;;15.06;60.02;100446.63;4469746;32;20103;-86
2023/05/09 06:45:16;;;;;;;2.72;1.80;;;;;;;15.21;60.03;100445.19;4469286;32;29595;-86
2023/05/09 06:47:41;;;;;;;2.65;1.70;;;;;;;15.29;60.03;100446.59;4457071;32;20106;-88
2023/05/09 06:50:07;;;;;;;4.95;1.90;;;;;;;15.40;60.04;100440.91;4457164;32;20145;-88
2023/05/09 06:52:33;;;;;;;3.75;1.95;;;;;;;15.70;60.07;100454.56;4456712;32;20101;-87
2023/05/09 06:54:58;;;;;;;3.85;2.67;;;;;;;15.68;60.06;100442.44;4456693;32;20522;-88
2023/05/09 06:57:23;;;;;;;7.95;1.92;;;;;;;15.68;60.06;100440.66;4468808;32;27401;-89
2023/05/09 06:59:49;;;;;;;2.83;1.55;;;;;;;15.72;60.06;100441.38;4469257;32;20103;-90
2023/05/09 07:02:15;;;;;;;6.70;2.00;;;;;;;15.79;60.07;100438.41;4469454;32;20453;-88
2023/05/09 07:04:40;;;;;;;6.05;1.70;;;;;;;15.86;60.07;100434.63;4469458;32;20407;-88
2023/05/09 07:07:06;;;;;;;4.85;1.70;;;;;;;15.89;60.07;100424.00;4470252;32;20135;-88
2023/05/09 07:09:31;;;;;;;2.83;1.65;;;;;;;16.15;60.08;100435.12;4456596;32;20156;-89
2023/05/09 07:11:58;;;;;;;8.68;1.80;;;;;;;16.28;60.09;100437.13;4469608;32;20134;-89
2023/05/09 07:14:24;;;;;;;5.85;1.58;;;;;;;16.44;60.10;100431.22;4456602;32;20088;-89
2023/05/09 07:16:49;;;;;;;2.67;1.80;;;;;;;16.41;60.10;100434.81;4469477;32;20368;-87
2023/05/09 07:19:14;;;;;;;2.92;1.45;;;;;;;16.42;60.10;100425.16;4468582;32;32954;-88
2023/05/09 07:21:40;;;;;;;3.55;1.75;;;;;;;16.54;60.11;100425.44;4456790;32;20120;-90
2023/05/09 07:24:05;;;;;;;2.55;0.95;;;;;;;16.62;60.11;100414.59;4469520;32;20102;-88
2023/05/09 07:26:31;;;;;;;5.62;0.93;;;;;;;16.62;60.11;100422.50;4456514;32;20092;-88
2023/05/09 07:28:56;;;;;;;5.00;0.82;;;;;;;16.56;60.11;100417.50;4469752;32;20150;-90
2023/05/09 07:31:22;;;;;;;2.03;0.82;;;;;;;16.76;60.12;100414.81;4469645;32;20519;-88
2023/05/09 07:33:47;;;;;;;2.28;0.80;;;;;;;16.85;60.13;100411.78;4469326;32;20138;-89
2023/05/09 07:36:15;;;;;;;2.12;1.05;;;;;;;16.93;60.13;100406.16;4456442;32;20120;-89
2023/05/09 07:38:40;;;;;;;4.80;0.93;;;;;;;16.97;60.13;100415.59;4469535;32;20116;-89
2023/05/09 07:41:06;;;;;;;1.62;1.05;;;;;;;17.09;60.14;100399.25;4469765;32;20163;-90
2023/05/09 07:43:31;;;;;;;2.50;1.08;;;;;;;17.15;60.14;100401.56;4469346;32;20077;-90
2023/05/09 07:45:57;;;;;;;3.30;1.17;;;;;;;17.17;60.14;100398.84;4456351;32;20125;-89
2023/05/09 07:48:22;;;;;;;4.45;1.00;;;;;;;17.09;60.14;100399.25;4456403;32;20108;-89
2023/05/09 07:50:48;;;;;;;1.95;0.90;;;;;;;17.13;60.13;100392.03;4469272;32;20127;-89
2023/05/09 07:53:13;;;;;;;2.53;1.00;;;;;;;17.29;60.14;100406.16;4456271;32;20088;-88
2023/05/09 07:55:38;;;;;;;4.62;1.00;;;;;;;17.44;60.15;100394.00;4456163;32;20373;-88
2023/05/09 07:58:04;;;;;;;3.95;0.95;;;;;;;17.50;60.16;100378.75;4469288;32;20161;-89
2023/05/09 08:00:30;;;;;;;3.17;1.08;;;;;;;17.56;60.16;100382.03;4469367;32;20445;-88
2023/05/09 08:02:55;;;;;;;2.05;0.80;;;;;;;17.53;60.17;100396.19;4469284;32;20141;-91
2023/05/09 08:05:20;;;;;;;2.47;1.00;;;;;;;17.48;60.16;100375.34;4455898;32;21698;-89
2023/05/09 08:07:46;;;;;;;2.30;0.80;;;;;;;17.49;60.16;100382.31;4456550;32;20152;-89
2023/05/09 08:10:11;;;;;;;5.28;1.12;;;;;;;17.49;60.16;100370.94;4470228;32;20576;-90
2023/05/09 08:12:37;;;;;;;3.42;1.05;;;;;;;17.70;60.17;100369.88;4470150;32;20094;-89
2023/05/09 08:15:02;;;;;;;3.17;0.80;;;;;;;17.68;60.17;100371.75;4456101;32;20477;-89
2023/05/09 08:17:28;;;;;;;1.83;0.88;;;;;;;17.89;60.17;100369.78;4468945;32;20439;-88
2023/05/09 08:19:53;;;;;;;2.50;0.90;;;;;;;18.01;60.18;100361.25;4468340;32;27300;-89
2023/05/09 08:22:18;;;;;;;4.37;0.90;;;;;;;18.19;60.19;100361.19;4468920;32;20161;-90
2023/05/09 08:24:45;;;;;;;3.53;0.98;;;;;;;18.34;60.20;100352.44;4468686;32;20093;-90
2023/05/09 08:27:12;;;;;;;7.37;1.48;;;;;;;18.47;60.21;100352.66;4456109;32;20104;-88
2023/05/09 08:29:38;;;;;;;2.35;1.10;;;;;;;18.63;60.22;100353.50;4468966;32;20113;-88
2023/05/09 08:32:04;;;;;;;2.17;0.90;;;;;;;18.71;60.23;100356.59;4468883;32;20084;-89
2023/05/09 08:34:33;;;;;;;1.87;0.98;;;;;;;18.79;60.22;100361.44;4455817;32;20148;-89
2023/05/09 08:37:01;;;;;;;3.62;0.80;;;;;;;18.90;60.23;100362.50;4456157;32;20104;-90
2023/05/09 08:39:26;;;;;;;1.37;0.88;;;;;;;19.07;60.23;100347.53;4468757;32;20089;-91
2023/05/09 08:41:52;;;;;;;3.65;0.93;;;;;;;19.28;60.25;100346.28;4469715;32;20514;-89
2023/05/09 08:44:20;;;;;;;2.12;1.17;;;;;;;19.28;60.25;100346.28;4455791;32;20092;-89
2023/05/09 08:46:45;;;;;;;1.58;0.60;;;;;;;19.25;60.25;100339.38;4469690;32;20182;-90
2023/05/09 08:49:11;;;;;;;0.85;0.80;;;;;;;19.17;60.25;100353.97;4470353;32;20145;-89
2023/05/09 08:51:36;;;;;;;3.15;0.52;;;;;;;19.26;60.25;100345.53;4444433;32;20108;-89
2023/05/09 08:54:02;;;;;;;3.85;0.80;;;;;;;19.45;60.26;100342.66;4470620;32;20084;-89
2023/05/09 08:56:31;;;;;;;6.60;1.08;;;;;;;19.60;60.27;100344.41;4457335;32;20151;-90
2023/05/09 08:58:56;;;;;;;3.22;1.10;;;;;;;19.48;60.26;100340.69;4457486;32;20112;-90
2023/05/09 09:01:22;;;;;;;4.20;1.10;;;;;;;19.63;60.27;100342.41;4475672;32;20374;-89
2023/05/09 09:03:48;;;;;;;0.60;0.43;;;;;;;19.85;60.29;100334.03;4471610;32;20133;-90
2023/05/09 09:06:17;;;;;;;1.75;0.85;;;;;;;19.91;60.30;100331.06;4470411;32;20105;-90
2023/05/09 09:08:43;;;;;;;2.47;0.77;;;;;;;20.01;60.30;100331.31;4457921;32;20127;-90
2023/05/09 09:11:12;;;;;;;2.12;1.85;;;;;;;20.07;60.29;100328.28;4470397;32;20172;-90
2023/05/09 09:13:39;;;;;;;1.07;0.90;;;;;;;20.26;60.31;100314.78;4470371;32;20081;-89
2023/05/09 09:16:04;;;;;;;1.25;0.80;;;;;;;20.36;60.31;100313.28;4457482;32;20173;-89
2023/05/09 09:18:30;;;;;;;18.98;9.45;;;;;;;20.28;60.31;100318.16;4457211;32;20160;-89
2023/05/09 09:20:56;;;;;;;2.25;0.90;;;;;;;20.46;60.31;100316.19;4457345;32;20467;-90
2023/05/09 09:23:24;;;;;;;2.58;0.60;;;;;;;20.62;60.33;100321.38;4470871;32;20795;-89
2023/05/09 09:25:56;;;;;;;2.60;0.65;;;;;;;20.69;60.32;100310.28;4470796;32;20401;-89
2023/05/09 09:28:22;;;;;;;0.80;0.68;;;;;;;21.06;60.35;100313.16;4470821;32;20130;-89
2023/05/09 09:30:47;;;;;;;0.93;0.57;;;;;;;20.91;60.33;100311.53;4458657;32;20088;-91
2023/05/09 09:33:20;;;;;;;4.87;0.73;;;;;;;21.00;60.35;100314.41;4471661;32;20097;-90
2023/05/09 09:35:47;;;;;;;1.08;0.77;;;;;;;21.25;60.36;100315.44;4457893;32;20153;-91
2023/05/09 09:38:12;;;;;;;1.52;1.10;;;;;;;21.34;60.36;100309.53;4470307;32;20108;-89
2023/05/09 09:40:39;;;;;;;0.70;0.60;;;;;;;21.53;60.37;100306.47;4456826;32;27645;-91
2023/05/09 09:43:05;;;;;;;1.42;1.20;;;;;;;21.57;60.38;100306.19;4471453;32;20493;-89
2023/05/09 09:45:31;;;;;;;1.15;0.80;;;;;;;21.84;60.39;100302.56;4457090;32;20104;-89
2023/05/09 09:47:56;;;;;;;0.75;0.62;;;;;;;21.88;60.40;100296.94;4469600;32;29469;-90
2023/05/09 09:50:23;;;;;;;3.87;1.23;;;;;;;22.04;60.40;100297.59;4469417;32;27716;-90
2023/05/09 09:52:53;;;;;;;2.87;0.93;;;;;;;21.94;60.40;100296.50;4470383;32;20566;-89
2023/05/09 09:55:19;;;;;;;3.78;1.25;;;;;;;22.02;60.40;100294.16;4470123;32;20184;-88
2023/05/09 09:57:45;;;;;;;2.53;0.70;;;;;;;22.25;60.41;100275.81;4470034;32;20101;-90
2023/05/09 10:00:14;;;;;;;0.82;0.70;;;;;;;22.61;60.43;100283.72;4470139;32;20131;-89
2023/05/09 10:02:53;;;;;;;0.65;0.50;;;;;;;22.83;60.44;100280.38;4470065;32;20507;-90
2023/05/09 10:05:22;;;;;;;1.60;0.80;;;;;;;22.66;60.44;100284.22;4470132;32;20156;-90
2023/05/09 10:08:01;;;;;;;0.82;0.52;;;;;;;22.76;60.44;100273.78;4457100;32;20163;-88
2023/05/09 10:10:30;;;;;;;0.70;0.50;;;;;;;23.10;60.46;100265.97;4469992;32;20165;-90
2023/05/09 10:12:57;;;;;;;0.40;0.40;;;;;;;23.45;60.47;100282.75;4456816;32;20077;-89
2023/05/09 10:15:23;;;;;;;0.50;0.50;;;;;;;23.57;60.49;100268.53;4470063;32;20104;-88
2023/05/09 10:17:51;;;;;;;2.45;0.35;;;;;;;23.53;60.48;100263.53;4469890;32;20096;-89
2023/05/09 10:20:16;;;;;;;2.22;0.80;;;;;;;23.54;60.48;100282.00;4456861;32;20101;-89
2023/05/09 10:22:42;;;;;;;3.62;0.60;;;;;;;23.53;60.48;100280.31;4470006;32;20132;-90
2023/05/09 10:25:12;;;;;;;1.02;0.55;;;;;;;23.52;60.48;100272.47;4469333;32;22869;-89
2023/05/09 10:27:39;;;;;;;1.15;0.57;;;;;;;23.64;60.49;100266.22;4469983;32;20100;-90
2023/05/09 10:30:26;;;;;;;1.17;0.60;;;;;;;23.72;60.49;100257.66;4470054;32;20157;-89
2023/05/09 10:32:52;;;;;;;2.30;0.82;;;;;;;23.80;60.50;100256.09;4470000;32;20094;-90
2023/05/09 10:35:19;;;;;;;5.05;0.70;;;;;;;24.05;60.51;100254.97;4469853;32;20150;-89
2023/05/09 10:37:44;;;;;;;1.25;0.50;;;;;;;24.02;60.51;100257.87;4469864;32;20464;-89
2023/05/09 10:40:14;;;;;;;2.00;1.80;;;;;;;24.16;60.51;100252.31;4456585;32;23420;-90
2023/05/09 10:42:41;;;;;;;1.00;0.60;;;;;;;24.18;60.51;100250.37;4469963;32;20093;-90
2023/05/09 10:45:08;;;;;;;2.30;0.52;;;;;;;24.26;60.51;100257.72;4470184;32;20150;-89
2023/05/09 10:47:33;;;;;;;2.53;0.70;;;;;;;23.87;60.51;100262.59;4469980;32;20104;-89
2023/05/09 10:49:59;;;;;;;2.20;0.85;;;;;;;23.87;60.50;100256.44;4470314;32;20111;-89
2023/05/09 10:52:25;;;;;;;2.05;0.70;;;;;;;23.74;60.50;100256.56;4457751;32;20121;-90
2023/05/09 10:55:01;;;;;;;1.35;0.73;;;;;;;23.95;60.50;100251.38;4470882;32;20693;-88
2023/05/09 10:57:30;;;;;;;3.90;0.95;;;;;;;24.10;60.51;100260.78;4470273;32;20101;-90
2023/05/09 10:59:56;;;;;;;2.17;0.75;;;;;;;23.60;60.49;100263.94;4469739;32;20122;-88
2023/05/09 11:02:27;;;;;;;1.55;0.62;;;;;;;23.31;60.47;100261.69;4469792;32;20123;-89
2023/05/09 11:05:16;;;;;;;2.90;0.73;;;;;;;23.35;60.48;100262.28;4469597;32;20449;-89
2023/05/09 11:07:42;;;;;;;1.67;0.70;;;;;;;23.18;60.47;100259.09;4464626;32;20123;-92
2023/05/09 11:10:16;;;;;;;1.90;0.85;;;;;;;23.16;60.46;100265.50;4456035;32;20132;-91
2023/05/09 11:12:58;;;;;;;3.78;0.68;;;;;;;23.25;60.48;100257.69;4469793;32;20096;-90
2023/05/09 11:15:25;;;;;;;2.17;0.73;;;;;;;22.90;60.46;100248.88;4469592;32;20108;-89
2023/05/09 11:18:04;;;;;;;1.98;0.70;;;;;;;23.02;60.46;100247.97;4470797;32;20169;-89
2023/05/09 11:20:37;;;;;;;3.87;0.77;;;;;;;23.45;60.48;100234.91;4469882;32;20112;-90
2023/05/09 11:23:03;;;;;;;4.78;1.20;;;;;;;23.16;60.46;100241.59;4469684;32;20153;-90
2023/05/09 11:25:28;;;;;;;3.78;0.80;;;;;;;22.50;60.43;100246.53;4469552;32;20378;-91